Time;durP1;ratioP1;P1;durP2;ratioP2;P2;SDS_P1;SDS_P2;PMS_P1;PMS_P2;Temp;Humidity;BMP_temperature;BMP_pressure;BME280_temperature;BME280_humidity;BME280_pressure;Samples;Min_cycle;Max_cycle;Signal;HPM_P1;HPM_P2
2022/09/28 00:00:35;;;;;;;0.80;0.25;;;7.70;99.90;;;;;;5052298;28;20102;-49
2022/09/28 00:03:02;;;;;;;0.52;0.30;;;7.70;99.90;;;;;;5053681;28;20513;-48
2022/09/28 00:05:29;;;;;;;4.45;0.45;;;7.80;99.90;;;;;;5053378;28;20114;-50
2022/09/28 00:07:56;;;;;;;1.60;0.20;;;7.80;99.90;;;;;;5035662;28;20049;-49
2022/09/28 00:10:23;;;;;;;0.40;0.25;;;7.80;99.90;;;;;;5053083;28;20080;-48
2022/09/28 00:12:51;;;;;;;0.45;0.40;;;7.80;99.90;;;;;;5053699;28;20065;-50
2022/09/28 00:15:18;;;;;;;0.63;0.30;;;7.80;99.90;;;;;;5055167;28;20472;-48
2022/09/28 00:17:45;;;;;;;1.17;0.30;;;7.80;99.90;;;;;;5054338;28;20502;-47
2022/09/28 00:20:12;;;;;;;2.22;0.43;;;7.80;99.90;;;;;;5054216;28;20132;-51
2022/09/28 00:22:39;;;;;;;0.43;0.30;;;7.80;99.90;;;;;;5057914;28;20072;-49
2022/09/28 00:25:06;;;;;;;0.88;0.30;;;7.80;99.90;;;;;;5032051;28;20055;-48
2022/09/28 00:27:33;;;;;;;0.68;0.40;;;7.90;99.90;;;;;;5053299;28;20033;-48
2022/09/28 00:30:00;;;;;;;5.70;0.70;;;7.90;99.90;;;;;;5048259;28;20092;-48
2022/09/28 00:32:27;;;;;;;2.05;0.55;;;7.80;99.90;;;;;;5053644;28;20623;-47
2022/09/28 00:34:54;;;;;;;1.50;1.40;;;7.80;99.90;;;;;;5052665;28;20448;-49
2022/09/28 00:37:20;;;;;;;0.80;0.47;;;7.80;99.90;;;;;;5035621;28;20057;-48
2022/09/28 00:39:48;;;;;;;0.40;0.32;;;7.70;99.90;;;;;;5059901;28;20547;-48
2022/09/28 00:42:24;;;;;;;0.20;0.20;;;7.60;99.90;;;;;;5035632;28;20114;-48
2022/09/28 00:44:51;;;;;;;0.20;0.20;;;7.60;99.90;;;;;;5029616;28;20098;-50
2022/09/28 00:47:40;;;;;;;0.30;0.25;;;7.60;99.90;;;;;;5047882;28;20114;-48
2022/09/28 00:50:13;;;;;;;0.93;0.32;;;7.50;99.90;;;;;;5037590;28;20500;-50
2022/09/28 00:53:03;;;;;;;0.82;0.38;;;7.50;99.90;;;;;;5047071;28;20083;-48
2022/09/28 00:55:39;;;;;;;2.60;1.00;;;7.60;99.90;;;;;;5053712;28;20114;-49
2022/09/28 00:58:10;;;;;;;3.90;1.70;;;7.60;99.90;;;;;;5028949;28;20049;-50
2022/09/28 01:00:39;;;;;;;3.38;2.13;;;7.70;99.90;;;;;;5042336;28;20114;-48
2022/09/28 01:03:08;;;;;;;4.22;2.20;;;7.70;99.90;;;;;;5052235;28;20056;-48
2022/09/28 01:05:38;;;;;;;4.13;2.25;;;7.80;99.90;;;;;;5049121;28;20064;-49
2022/09/28 01:08:07;;;;;;;4.53;2.33;;;7.90;99.90;;;;;;5034875;28;20095;-51
2022/09/28 01:10:34;;;;;;;6.85;2.40;;;7.90;99.90;;;;;;5034096;28;20593;-49
2022/09/28 01:13:01;;;;;;;3.08;2.17;;;8.00;99.90;;;;;;5034733;28;20041;-48
2022/09/28 01:15:29;;;;;;;5.13;2.03;;;8.00;99.90;;;;;;5039761;28;20160;-48
2022/09/28 01:18:11;;;;;;;2.70;0.80;;;8.00;99.90;;;;;;5055211;28;20151;-48
2022/09/28 01:21:04;;;;;;;0.47;0.35;;;7.90;99.90;;;;;;5049096;28;20072;-49
2022/09/28 01:24:01;;;;;;;1.75;0.30;;;7.70;99.90;;;;;;5047023;28;20041;-48
2022/09/28 01:26:41;;;;;;;1.40;0.30;;;7.60;99.90;;;;;;5052320;28;20049;-48
2022/09/28 01:29:30;;;;;;;2.15;0.40;;;7.60;99.90;;;;;;5034346;28;20155;-48
2022/09/28 01:32:21;;;;;;;1.10;0.60;;;7.60;99.90;;;;;;5046189;28;20110;-48
2022/09/28 01:35:00;;;;;;;1.15;0.98;;;7.60;99.90;;;;;;5043258;28;20044;-48
2022/09/28 01:37:40;;;;;;;1.10;0.70;;;7.50;99.90;;;;;;5054913;28;20052;-51
2022/09/28 01:40:09;;;;;;;1.83;0.80;;;7.50;99.90;;;;;;5057908;28;20049;-48
2022/09/28 01:42:40;;;;;;;1.25;0.70;;;7.50;99.90;;;;;;5051634;28;20128;-49
2022/09/28 01:45:14;;;;;;;2.20;0.77;;;7.50;99.90;;;;;;5033551;28;20099;-49
2022/09/28 01:47:43;;;;;;;1.17;0.90;;;7.60;99.90;;;;;;5050443;28;20052;-51
2022/09/28 01:50:14;;;;;;;1.25;0.90;;;7.60;99.90;;;;;;5049691;28;20053;-50
2022/09/28 01:52:54;;;;;;;2.33;0.90;;;7.60;99.90;;;;;;5053649;28;20094;-48
2022/09/28 01:55:33;;;;;;;1.33;0.95;;;7.60;99.90;;;;;;5039629;28;20051;-48
2022/09/28 01:58:27;;;;;;;;;;;7.70;99.90;;;;;;5051434;27;20106;-88
2022/09/28 02:01:03;;;;;;;2.03;0.90;;;7.70;99.90;;;;;;5025634;28;19968;-51
2022/09/28 02:03:41;;;;;;;1.25;0.60;;;7.80;99.90;;;;;;5029150;28;20141;-50
2022/09/28 02:06:18;;;;;;;3.03;0.70;;;7.80;99.90;;;;;;5040666;28;20045;-48
2022/09/28 02:08:58;;;;;;;1.08;0.90;;;7.80;99.90;;;;;;5034314;28;20104;-48
2022/09/28 02:11:41;;;;;;;1.02;0.77;;;7.80;99.90;;;;;;5013435;28;20041;-48
2022/09/28 02:14:12;;;;;;;3.80;1.20;;;7.90;99.90;;;;;;5021439;28;20046;-49
2022/09/28 02:16:45;;;;;;;4.10;1.45;;;7.80;99.90;;;;;;5027517;28;20128;-50
2022/09/28 02:19:16;;;;;;;4.20;1.88;;;7.90;99.90;;;;;;5031675;28;20048;-48
2022/09/28 02:21:53;;;;;;;6.68;2.65;;;7.90;99.90;;;;;;5042399;28;20048;-47
2022/09/28 02:24:39;;;;;;;3.75;2.50;;;7.90;99.90;;;;;;5049597;28;20559;-51
2022/09/28 02:27:13;;;;;;;5.30;2.47;;;7.90;99.90;;;;;;5017234;28;20041;-48
2022/09/28 02:29:40;;;;;;;4.43;2.35;;;8.00;99.90;;;;;;5010937;28;20100;-48
2022/09/28 02:32:07;;;;;;;4.95;2.80;;;7.90;99.90;;;;;;5029859;28;20045;-52
2022/09/28 02:34:34;;;;;;;7.45;2.80;;;8.00;99.90;;;;;;5050133;28;20072;-51
2022/09/28 02:37:01;;;;;;;4.68;2.10;;;7.90;99.90;;;;;;5014182;28;20413;-49
2022/09/28 02:39:29;;;;;;;3.00;2.28;;;7.90;99.90;;;;;;5049459;28;20033;-48
2022/09/28 02:42:02;;;;;;;3.42;2.17;;;7.90;99.90;;;;;;5013478;28;20059;-49
2022/09/28 02:44:46;;;;;;;2.38;2.05;;;7.90;99.90;;;;;;5039597;28;20053;-48
2022/09/28 02:47:45;;;;;;;3.08;1.25;;;7.90;99.90;;;;;;4993728;28;20201;-48
2022/09/28 02:50:21;;;;;;;1.65;0.95;;;7.90;99.90;;;;;;5014957;28;20169;-48
2022/09/28 02:53:08;;;;;;;2.38;0.90;;;7.80;99.90;;;;;;5049839;28;20037;-49
2022/09/28 02:56:02;;;;;;;2.13;1.27;;;7.70;99.90;;;;;;4993904;28;20156;-53
2022/09/28 02:59:02;;;;;;;2.22;1.35;;;7.60;99.90;;;;;;5000540;28;20152;-49
2022/09/28 03:01:59;;;;;;;3.33;1.35;;;7.60;99.90;;;;;;5033085;28;20046;-49
2022/09/28 03:04:42;;;;;;;2.45;0.93;;;7.50;99.90;;;;;;4993524;28;20596;-51
2022/09/28 03:07:40;;;;;;;0.40;0.38;;;7.40;99.90;;;;;;5014026;28;20092;-51
2022/09/28 03:10:10;;;;;;;1.27;0.43;;;7.40;99.90;;;;;;5019233;28;20095;-48
2022/09/28 03:12:38;;;;;;;2.63;0.30;;;7.10;99.90;;;;;;5010228;28;20046;-48
2022/09/28 03:15:26;;;;;;;0.75;0.50;;;7.00;99.90;;;;;;5012468;28;20129;-48
2022/09/28 03:17:55;;;;;;;3.45;1.38;;;7.00;99.90;;;;;;5023081;28;20539;-47
2022/09/28 03:20:23;;;;;;;1.42;0.95;;;7.00;99.90;;;;;;5047657;28;20064;-47
2022/09/28 03:22:49;;;;;;;0.77;0.60;;;7.00;99.90;;;;;;5003741;28;20134;-49
2022/09/28 03:25:36;;;;;;;1.45;0.60;;;7.10;99.90;;;;;;5038784;28;20120;-48
2022/09/28 03:28:03;;;;;;;2.90;0.88;;;7.10;99.90;;;;;;5020300;28;20453;-51
2022/09/28 03:30:33;;;;;;;0.63;0.60;;;7.00;99.90;;;;;;5009230;28;20033;-47
2022/09/28 03:33:01;;;;;;;0.70;0.60;;;7.00;99.90;;;;;;5015705;28;20444;-51
2022/09/28 03:35:30;;;;;;;1.95;0.82;;;7.00;99.90;;;;;;5030217;28;20087;-48
2022/09/28 03:37:57;;;;;;;1.52;1.00;;;7.00;99.90;;;;;;5042674;28;20048;-49
2022/09/28 03:40:26;;;;;;;1.50;1.05;;;7.00;99.90;;;;;;5039746;28;20050;-48
2022/09/28 03:42:53;;;;;;;2.55;1.77;;;7.00;99.90;;;;;;5020029;28;20049;-50
2022/09/28 03:45:20;;;;;;;1.80;1.25;;;7.00;99.90;;;;;;5017623;28;20498;-49
2022/09/28 03:47:49;;;;;;;2.40;1.13;;;7.00;99.90;;;;;;5030246;28;20051;-48
2022/09/28 03:50:17;;;;;;;3.55;1.00;;;7.00;99.90;;;;;;5009512;28;20073;-48
2022/09/28 03:52:44;;;;;;;1.52;1.10;;;7.10;99.90;;;;;;5000390;28;20038;-49
2022/09/28 03:55:11;;;;;;;3.53;1.40;;;7.00;99.90;;;;;;5028262;28;20042;-49
2022/09/28 03:57:37;;;;;;;3.30;1.70;;;7.00;99.90;;;;;;5022127;28;20442;-48
2022/09/28 04:00:05;;;;;;;2.05;1.30;;;7.00;99.90;;;;;;5014517;28;20048;-50
2022/09/28 04:02:39;;;;;;;1.67;1.17;;;7.00;99.90;;;;;;5042230;28;20045;-50
2022/09/28 04:05:06;;;;;;;2.60;1.58;;;7.00;99.90;;;;;;5022224;28;20049;-52
2022/09/28 04:07:33;;;;;;;2.72;1.80;;;7.00;99.90;;;;;;5018568;28;20306;-49
2022/09/28 04:10:00;;;;;;;3.20;2.08;;;7.10;99.90;;;;;;5032044;28;20048;-48
2022/09/28 04:12:26;;;;;;;3.33;2.05;;;7.20;99.90;;;;;;5021329;28;20042;-50
2022/09/28 04:14:53;;;;;;;1.83;1.52;;;7.30;99.90;;;;;;5018728;28;20051;-50
2022/09/28 04:17:20;;;;;;;2.55;1.38;;;7.30;99.90;;;;;;5027432;28;20115;-50
2022/09/28 04:19:47;;;;;;;5.35;2.97;;;7.40;99.90;;;;;;5040492;28;20414;-48
2022/09/28 04:22:24;;;;;;;3.58;2.50;;;7.30;99.90;;;;;;5019367;28;20045;-49
2022/09/28 04:24:51;;;;;;;6.88;2.72;;;7.30;99.90;;;;;;5033781;28;20050;-49
2022/09/28 04:30:03;;;;;;;5.30;3.00;;;7.40;99.90;;;;;;5019761;28;20038;-48
2022/09/28 04:32:32;;;;;;;11.93;5.93;;;7.40;99.90;;;;;;5011250;28;20041;-48
2022/09/28 04:34:59;;;;;;;2.60;1.60;;;7.40;99.90;;;;;;5025667;28;20140;-49
2022/09/28 04:37:25;;;;;;;6.13;2.30;;;7.50;99.90;;;;;;5040293;28;20092;-49
2022/09/28 04:39:52;;;;;;;2.30;1.65;;;7.50;99.90;;;;;;5056099;28;20406;-48
2022/09/28 04:42:19;;;;;;;2.63;1.25;;;7.40;99.90;;;;;;5026142;28;20451;-48
2022/09/28 04:44:48;;;;;;;2.45;1.50;;;7.40;99.90;;;;;;5018358;28;20041;-48
2022/09/28 04:47:15;;;;;;;;;;;7.50;99.90;;;;;;5036784;28;20179;-49
2022/09/28 04:50:00;;;;;;;3.78;1.92;;;7.50;99.90;;;;;;5031001;28;20509;-50
2022/09/28 04:52:30;;;;;;;2.50;1.58;;;7.50;99.90;;;;;;5015518;28;20049;-50
2022/09/28 04:54:57;;;;;;;2.95;1.90;;;7.50;99.90;;;;;;5026898;28;20062;-48
2022/09/28 04:57:24;;;;;;;;;;;7.50;99.90;;;;;;5014267;28;20472;-49
2022/09/28 04:59:51;;;;;;;1.60;1.50;;;7.60;99.90;;;;;;5027493;28;19968;-49
2022/09/28 05:02:18;;;;;;;1.75;1.13;;;7.60;99.90;;;;;;5032099;28;20037;-51
2022/09/28 05:04:52;;;;;;;2.05;1.33;;;7.50;99.90;;;;;;5033174;28;20072;-48
2022/09/28 05:07:41;;;;;;;2.47;1.40;;;7.50;99.90;;;;;;5030667;28;20036;-49
2022/09/28 05:10:10;;;;;;;4.32;2.20;;;7.50;99.90;;;;;;5021027;28;20044;-47
2022/09/28 05:12:38;;;;;;;6.43;2.08;;;7.50;99.90;;;;;;5041335;28;20128;-47
2022/09/28 05:15:05;;;;;;;6.03;3.22;;;7.50;99.90;;;;;;5000404;28;20045;-49
2022/09/28 05:17:32;;;;;;;10.10;3.20;;;7.60;99.90;;;;;;5023675;28;20452;-47
2022/09/28 05:20:15;;;;;;;3.55;1.80;;;7.60;99.90;;;;;;5029142;28;20049;-47
2022/09/28 05:22:42;;;;;;;2.70;1.98;;;7.60;99.90;;;;;;5038841;28;20560;-47
2022/09/28 05:25:09;;;;;;;6.95;2.88;;;7.60;99.90;;;;;;5040111;28;20509;-48
2022/09/28 05:28:02;;;;;;;4.38;2.60;;;7.60;99.90;;;;;;5023356;28;20052;-48
2022/09/28 05:30:47;;;;;;;6.43;3.22;;;7.60;99.90;;;;;;5041354;28;20048;-47
2022/09/28 05:33:31;;;;;;;9.15;3.20;;;7.70;99.90;;;;;;5026993;28;20056;-47
2022/09/28 05:36:12;;;;;;;4.65;2.78;;;7.70;99.90;;;;;;5047893;28;20148;-46
2022/09/28 05:38:41;;;;;;;6.88;3.58;;;7.80;99.90;;;;;;5013643;28;20042;-49
2022/09/28 05:41:08;;;;;;;5.68;3.25;;;7.80;99.90;;;;;;5026128;28;20053;-47
2022/09/28 05:43:35;;;;;;;5.40;3.10;;;7.80;99.90;;;;;;5050885;28;20405;-47
2022/09/28 05:46:06;;;;;;;5.53;3.40;;;7.80;99.90;;;;;;5025905;28;20049;-47
2022/09/28 05:48:36;;;;;;;6.50;3.65;;;7.80;99.90;;;;;;5014399;28;20049;-46
2022/09/28 05:51:03;;;;;;;5.18;3.78;;;7.80;99.90;;;;;;5009976;28;20042;-48
2022/09/28 05:53:30;;;;;;;8.05;3.08;;;7.80;99.90;;;;;;5032010;28;20119;-48
2022/09/28 05:55:58;;;;;;;3.72;2.47;;;7.80;99.90;;;;;;5020920;28;20074;-47
2022/09/28 05:58:26;;;;;;;6.63;2.95;;;7.80;99.90;;;;;;5019257;28;20057;-47
2022/09/28 06:00:57;;;;;;;5.65;2.72;;;7.90;99.90;;;;;;5017300;28;20451;-47
2022/09/28 06:03:24;;;;;;;8.27;3.20;;;7.80;99.90;;;;;;5021418;28;20054;-46
2022/09/28 06:05:52;;;;;;;6.47;4.22;;;7.90;99.90;;;;;;5021431;28;20523;-48
2022/09/28 06:08:19;;;;;;;9.00;3.60;;;7.90;99.90;;;;;;5022796;28;20041;-47
2022/09/28 06:10:58;;;;;;;5.82;3.15;;;7.90;99.90;;;;;;5044059;28;20041;-47
2022/09/28 06:13:26;;;;;;;3.42;2.25;;;8.00;99.90;;;;;;5049787;28;20816;-48
2022/09/28 06:15:53;;;;;;;8.18;2.75;;;8.10;99.90;;;;;;5040568;28;20056;-48
2022/09/28 06:18:20;;;;;;;8.02;3.03;;;8.20;99.90;;;;;;5031328;28;20049;-50
2022/09/28 06:21:11;;;;;;;4.70;2.92;;;8.20;99.90;;;;;;5027272;28;20590;-47
2022/09/28 06:23:44;;;;;;;9.45;3.35;;;8.20;99.90;;;;;;5050086;28;20049;-47
2022/09/28 06:26:15;;;;;;;7.72;3.35;;;8.30;99.90;;;;;;5016543;28;20107;-50
2022/09/28 06:28:43;;;;;;;6.95;3.30;;;8.30;99.90;;;;;;5033168;28;20454;-51
2022/09/28 06:31:10;;;;;;;4.85;3.00;;;8.30;99.90;;;;;;5030366;28;20049;-46
2022/09/28 06:33:47;;;;;;;4.45;2.90;;;8.30;99.90;;;;;;5032801;28;20040;-47
2022/09/28 06:36:14;;;;;;;6.18;2.95;;;8.40;99.90;;;;;;5012913;28;20401;-47
2022/09/28 06:38:41;;;;;;;6.90;3.00;;;8.40;99.90;;;;;;5026757;28;20103;-47
2022/09/28 06:41:09;;;;;;;7.63;3.08;;;8.40;99.90;;;;;;5013901;28;20465;-47
2022/09/28 06:43:38;;;;;;;5.80;3.55;;;8.40;99.90;;;;;;5028714;28;20049;-47
2022/09/28 06:46:11;;;;;;;5.10;3.25;;;8.40;99.90;;;;;;5039312;28;20053;-47
2022/09/28 06:48:57;;;;;;;6.93;3.40;;;8.50;99.90;;;;;;5042076;28;20076;-48
2022/09/28 06:51:45;;;;;;;5.60;3.53;;;8.50;99.90;;;;;;5011635;28;20061;-47
2022/09/28 06:54:24;;;;;;;4.97;2.97;;;8.50;99.90;;;;;;5018132;28;20046;-47
2022/09/28 06:57:20;;;;;;;4.75;2.40;;;8.50;99.90;;;;;;5033365;28;20049;-46
2022/09/28 06:59:46;;;;;;;4.50;2.72;;;8.40;99.90;;;;;;5021296;28;20050;-47
2022/09/28 07:02:13;;;;;;;5.20;3.20;;;8.50;99.90;;;;;;5003220;28;20050;-50
2022/09/28 07:05:01;;;;;;;5.95;3.22;;;8.50;99.90;;;;;;5027001;28;20064;-47
2022/09/28 07:07:58;;;;;;;4.55;2.80;;;8.50;99.90;;;;;;5020086;28;20052;-47
2022/09/28 07:10:44;;;;;;;;;;;8.60;99.90;;;;;;5031231;28;20073;-48
2022/09/28 07:13:27;;;;;;;5.55;3.33;;;8.60;99.90;;;;;;5022857;28;19921;-48
2022/09/28 07:16:14;;;;;;;8.57;4.30;;;8.70;99.90;;;;;;5000181;28;20040;-47
2022/09/28 07:18:41;;;;;;;4.93;3.00;;;8.80;99.90;;;;;;5025681;28;20506;-47
2022/09/28 07:21:07;;;;;;;9.32;3.55;;;8.80;99.90;;;;;;5009664;28;20557;-49
2022/09/28 07:23:47;;;;;;;5.53;2.88;;;8.80;99.90;;;;;;5011311;28;20274;-47
2022/09/28 07:26:22;;;;;;;6.10;2.60;;;8.80;99.90;;;;;;5048388;28;20557;-52
2022/09/28 07:28:56;;;;;;;6.30;2.42;;;8.80;99.90;;;;;;5014779;28;20445;-47
2022/09/28 07:31:55;;;;;;;4.60;2.95;;;8.80;99.90;;;;;;5003174;28;20545;-47
2022/09/28 07:34:47;;;;;;;4.90;2.33;;;8.70;99.90;;;;;;5020413;28;21350;-47
2022/09/28 07:37:25;;;;;;;6.93;2.95;;;8.60;99.90;;;;;;5020280;28;20060;-47
2022/09/28 07:42:38;;;;;;;5.22;3.05;;;8.70;99.90;;;;;;5019335;28;20046;-47
2022/09/28 07:45:06;;;;;;;;;;;8.60;99.90;;;;;;5029547;28;20461;-47
2022/09/28 07:47:32;;;;;;;5.18;2.92;;;8.70;99.90;;;;;;5024393;28;19957;-48
2022/09/28 07:50:30;;;;;;;4.20;2.30;;;8.70;99.90;;;;;;4973839;28;20154;-47
2022/09/28 07:53:19;;;;;;;4.00;2.50;;;8.80;99.90;;;;;;5022739;28;20057;-48
2022/09/28 07:56:06;;;;;;;5.22;2.63;;;8.80;99.90;;;;;;5043796;28;20059;-50
2022/09/28 07:58:40;;;;;;;6.15;3.70;;;8.90;99.90;;;;;;5015321;22;20077;-46
2022/09/28 08:01:39;;;;;;;;;;;9.00;99.90;;;;;;5026929;28;20051;-48
2022/09/28 08:04:09;;;;;;;10.10;5.20;;;9.00;99.90;;;;;;5072870;28;19930;-47
2022/09/28 08:06:39;;;;;;;15.90;5.40;;;9.10;99.90;;;;;;5084964;28;20496;-47
2022/09/28 08:09:07;;;;;;;9.48;5.07;;;9.10;99.90;;;;;;5065165;28;20049;-46
2022/09/28 08:11:53;;;;;;;6.28;3.55;;;9.20;99.90;;;;;;5070276;28;20504;-46
2022/09/28 08:14:40;;;;;;;5.95;3.45;;;9.10;99.90;;;;;;5062553;28;20529;-47
2022/09/28 08:17:30;;;;;;;7.20;2.92;;;9.10;99.90;;;;;;5066240;28;20040;-46
2022/09/28 08:22:44;;;;;;;3.65;2.53;;;9.10;99.90;;;;;;5066788;28;20045;-46
2022/09/28 08:25:11;;;;;;;4.75;3.65;;;9.10;99.90;;;;;;5065966;28;20756;-47
2022/09/28 08:27:37;;;;;;;8.70;3.70;;;9.10;99.90;;;;;;5067600;28;20048;-46
2022/09/28 08:30:05;;;;;;;5.70;3.40;;;9.10;99.90;;;;;;5066145;28;20072;-46
2022/09/28 08:32:49;;;;;;;5.45;3.03;;;9.20;99.90;;;;;;5072564;28;20052;-46
2022/09/28 08:35:57;;;;;;;6.40;3.25;;;9.30;99.90;;;;;;5005188;28;20101;-47
2022/09/28 08:38:43;;;;;;;9.25;4.65;;;9.40;99.90;;;;;;5060244;28;20139;-46
2022/09/28 08:41:49;;;;;;;4.00;2.95;;;9.60;99.90;;;;;;5069956;28;20063;-46
2022/09/28 08:44:24;;;;;;;5.65;3.60;;;9.60;99.90;;;;;;5061018;28;20048;-46
2022/09/28 08:50:31;;;;;;;8.25;3.10;;;9.80;99.90;;;;;;5071402;28;20045;-47
2022/09/28 08:53:40;;;;;;;7.15;4.00;;;9.90;99.90;;;;;;5051961;28;20063;-46
2022/09/28 08:56:41;;;;;;;11.13;3.22;;;10.00;99.90;;;;;;5060764;28;20044;-46
2022/09/28 08:59:25;;;;;;;5.40;2.90;;;9.90;99.90;;;;;;5071492;28;20505;-46
2022/09/28 09:02:15;;;;;;;3.88;2.28;;;9.90;99.90;;;;;;5075500;28;20048;-46
2022/09/28 09:04:42;;;;;;;2.70;1.85;;;10.00;99.90;;;;;;5072132;28;20071;-46
2022/09/28 09:07:36;;;;;;;9.02;2.55;;;10.00;99.90;;;;;;5072006;28;20404;-47
2022/09/28 09:10:16;;;;;;;7.30;2.67;;;10.00;99.90;;;;;;5064044;28;20582;-47
2022/09/28 09:13:11;;;;;;;10.15;2.33;;;10.00;99.90;;;;;;5064382;28;20072;-46
2022/09/28 09:15:54;;;;;;;8.75;2.90;;;10.00;99.90;;;;;;5068917;28;20044;-46
2022/09/28 09:19:02;;;;;;;;;;;10.00;99.90;;;;;;5063750;28;20138;-46
2022/09/28 09:22:00;;;;;;;4.50;2.70;;;10.10;99.90;;;;;;5072288;28;19931;-46
2022/09/28 09:24:49;;;;;;;4.05;2.75;;;10.10;99.90;;;;;;5067083;28;20037;-46
2022/09/28 09:27:35;;;;;;;9.10;2.72;;;10.10;99.90;;;;;;5044686;28;20044;-46
2022/09/28 09:30:18;;;;;;;10.20;2.95;;;10.10;99.90;;;;;;5067431;28;20064;-46
2022/09/28 09:32:55;;;;;;;5.47;3.30;;;10.20;99.90;;;;;;5070619;28;20051;-46
2022/09/28 09:35:45;;;;;;;5.85;2.88;;;10.20;99.90;;;;;;5069164;28;20068;-47
2022/09/28 09:39:06;;;;;;;5.05;2.58;;;10.20;99.90;;;;;;5072581;28;20106;-46
2022/09/28 09:42:00;;;;;;;5.15;2.95;;;10.20;99.90;;;;;;5075789;28;20055;-46
2022/09/28 09:45:05;;;;;;;5.72;3.55;;;10.30;99.90;;;;;;5063959;28;20118;-46
2022/09/28 09:47:46;;;;;;;5.80;3.78;;;10.50;99.90;;;;;;5069382;28;20071;-47
2022/09/28 09:50:24;;;;;;;7.82;4.10;;;10.60;99.90;;;;;;5065066;28;20113;-47
2022/09/28 09:52:56;;;;;;;7.45;4.60;;;10.60;99.90;;;;;;5067392;28;20064;-46
2022/09/28 09:55:43;;;;;;;6.15;3.65;;;10.70;99.90;;;;;;5066481;28;20036;-46
2022/09/28 09:58:40;;;;;;;6.57;3.67;;;10.70;99.90;;;;;;5064893;28;20116;-46
2022/09/28 10:01:37;;;;;;;7.47;3.60;;;10.70;99.90;;;;;;5066695;28;20512;-46
2022/09/28 10:04:39;;;;;;;9.02;4.47;;;10.70;99.90;;;;;;5054381;28;20073;-46
2022/09/28 10:07:27;;;;;;;8.38;4.07;;;10.80;99.90;;;;;;5068843;28;20040;-46
2022/09/28 10:09:57;;;;;;;5.55;3.90;;;11.00;99.90;;;;;;5069859;28;20037;-46
2022/09/28 10:12:43;;;;;;;6.72;3.65;;;11.10;99.90;;;;;;5067295;28;20505;-48
2022/09/28 10:15:16;;;;;;;9.38;4.63;;;11.20;99.90;;;;;;5061459;28;20044;-46
2022/09/28 10:18:01;;;;;;;7.10;4.43;;;11.30;99.90;;;;;;5070541;28;20063;-46
2022/09/28 10:21:03;;;;;;;12.45;6.80;;;11.30;99.90;;;;;;5081520;28;20095;-46
2022/09/28 10:23:53;;;;;;;9.32;5.32;;;11.30;99.90;;;;;;5063541;28;20040;-46
2022/09/28 10:26:34;;;;;;;11.00;4.68;;;11.30;99.90;;;;;;5070257;28;20413;-46
2022/09/28 10:29:09;;;;;;;5.60;3.35;;;11.30;99.90;;;;;;5077250;28;20074;-46
2022/09/28 10:31:43;;;;;;;7.90;4.60;;;11.20;99.90;;;;;;5055222;28;20493;-47
2022/09/28 10:34:26;;;;;;;8.07;4.47;;;11.20;99.90;;;;;;5065200;28;20052;-47
2022/09/28 10:37:02;;;;;;;9.25;4.80;;;11.30;99.90;;;;;;5067957;28;20051;-46
2022/09/28 10:39:54;;;;;;;11.60;5.63;;;11.30;99.90;;;;;;5067508;28;20049;-47
2022/09/28 10:42:27;;;;;;;6.45;3.60;;;11.40;99.90;;;;;;5070363;28;20049;-46
2022/09/28 10:45:03;;;;;;;5.88;3.63;;;11.40;99.90;;;;;;5066258;28;20040;-46
2022/09/28 10:47:35;;;;;;;8.60;4.30;;;11.40;99.90;;;;;;5063884;28;20059;-46
2022/09/28 10:50:18;;;;;;;7.20;4.63;;;11.30;99.90;;;;;;5056701;28;20094;-47
2022/09/28 10:52:46;;;;;;;13.38;4.57;;;11.30;99.90;;;;;;5071251;28;20109;-47
2022/09/28 10:55:35;;;;;;;8.10;3.88;;;11.30;99.90;;;;;;5065418;28;20067;-46
2022/09/28 10:58:25;;;;;;;5.88;3.50;;;11.20;99.90;;;;;;5063185;28;20051;-46
2022/09/28 11:00:59;;;;;;;7.47;3.55;;;11.00;99.90;;;;;;5069222;28;20424;-46
2022/09/28 11:03:28;;;;;;;7.60;3.40;;;10.90;99.90;;;;;;5066353;28;20049;-46
2022/09/28 11:06:06;;;;;;;7.65;2.90;;;10.90;99.90;;;;;;5059374;28;20593;-46
2022/09/28 11:08:37;;;;;;;6.20;3.20;;;10.80;99.90;;;;;;5069423;28;20122;-46
2022/09/28 11:11:11;;;;;;;2.55;2.15;;;10.80;99.90;;;;;;5063190;28;20040;-47
2022/09/28 11:13:41;;;;;;;6.70;2.53;;;10.80;99.90;;;;;;5065386;28;20068;-46
2022/09/28 11:16:23;;;;;;;3.20;2.40;;;10.90;99.90;;;;;;5057421;28;20111;-46
2022/09/28 11:18:52;;;;;;;5.50;2.28;;;10.90;99.90;;;;;;5053272;28;20510;-46
2022/09/28 11:21:26;;;;;;;3.60;2.58;;;11.00;99.90;;;;;;5066890;28;20079;-46
2022/09/28 11:24:25;;;;;;;5.97;2.67;;;11.00;99.90;;;;;;5068384;28;20079;-47
2022/09/28 11:26:58;;;;;;;5.75;2.95;;;11.10;99.90;;;;;;5069553;28;20044;-46
2022/09/28 11:29:39;;;;;;;5.88;2.97;;;11.10;99.90;;;;;;5073730;28;20059;-47
2022/09/28 11:32:40;;;;;;;4.57;2.72;;;11.20;99.90;;;;;;5068850;28;20048;-46
2022/09/28 11:35:33;;;;;;;3.85;2.78;;;11.30;99.90;;;;;;5070650;28;20076;-48
2022/09/28 11:38:27;;;;;;;4.15;2.70;;;11.30;99.90;;;;;;5061051;28;20088;-46
2022/09/28 11:41:37;;;;;;;4.97;3.10;;;11.20;99.90;;;;;;5069522;28;20135;-46
2022/09/28 11:44:22;;;;;;;6.90;2.80;;;11.10;99.90;;;;;;5068874;28;20044;-46
2022/09/28 11:47:04;;;;;;;3.25;2.20;;;11.10;99.90;;;;;;5066817;28;20053;-46
2022/09/28 11:49:40;;;;;;;6.25;2.33;;;11.10;99.90;;;;;;5069821;28;20118;-46
2022/09/28 11:52:17;;;;;;;5.10;3.05;;;11.10;99.90;;;;;;5063018;28;20078;-48
2022/09/28 11:54:54;;;;;;;4.75;2.40;;;11.20;99.90;;;;;;5068101;28;20037;-46
2022/09/28 11:57:26;;;;;;;3.83;2.65;;;11.30;99.90;;;;;;5068227;28;20048;-46
2022/09/28 12:00:00;;;;;;;3.95;2.53;;;11.30;99.90;;;;;;5073296;28;20052;-46
2022/09/28 12:02:35;;;;;;;5.93;3.28;;;11.50;99.90;;;;;;5074558;28;20044;-46
2022/09/28 12:05:20;;;;;;;9.02;3.38;;;11.40;99.90;;;;;;5057730;28;20052;-46
2022/09/28 12:07:54;;;;;;;3.42;2.60;;;11.40;99.90;;;;;;5066299;28;20049;-46
2022/09/28 12:11:05;;;;;;;6.65;3.55;;;11.40;99.90;;;;;;5053820;28;20409;-46
2022/09/28 12:14:20;;;;;;;8.52;4.45;;;11.30;99.90;;;;;;5042136;28;20051;-46
2022/09/28 12:16:54;;;;;;;5.55;3.22;;;11.30;99.90;;;;;;5073335;28;20859;-46
2022/09/28 12:20:01;;;;;;;7.13;3.70;;;11.30;99.90;;;;;;5074447;28;20045;-46
2022/09/28 12:22:45;;;;;;;6.55;4.22;;;11.20;99.90;;;;;;5067165;28;20064;-46
2022/09/28 12:25:17;;;;;;;5.95;4.15;;;11.10;99.90;;;;;;5072967;28;20080;-46
2022/09/28 12:27:50;;;;;;;8.98;5.13;;;11.00;99.90;;;;;;5054176;28;20072;-47
2022/09/28 12:30:31;;;;;;;8.88;4.05;;;11.00;99.90;;;;;;5061746;28;20452;-48
2022/09/28 12:33:08;;;;;;;9.82;4.13;;;11.00;99.90;;;;;;5073485;28;20127;-46
2022/09/28 12:36:15;;;;;;;6.82;3.42;;;10.90;99.90;;;;;;5072144;28;20549;-47
2022/09/28 12:39:01;;;;;;;8.75;3.53;;;10.90;99.90;;;;;;5067040;28;20044;-46
2022/09/28 12:41:47;;;;;;;4.60;3.05;;;11.00;99.90;;;;;;5070928;28;20524;-46
2022/09/28 12:44:23;;;;;;;6.00;3.38;;;11.00;99.90;;;;;;5073139;28;20041;-46
2022/09/28 12:47:23;;;;;;;5.07;2.70;;;11.10;99.90;;;;;;5059859;28;20048;-46
2022/09/28 12:50:19;;;;;;;6.28;3.42;;;11.00;99.90;;;;;;5064165;28;20119;-46
2022/09/28 12:53:20;;;;;;;9.45;3.50;;;11.20;99.90;;;;;;5070109;28;20049;-46
2022/09/28 12:56:23;;;;;;;5.30;3.40;;;11.30;99.90;;;;;;5062266;28;20045;-48
2022/09/28 12:59:16;;;;;;;7.28;4.10;;;11.40;99.90;;;;;;5071288;28;20508;-46
2022/09/28 13:01:51;;;;;;;9.25;2.95;;;11.50;99.90;;;;;;5069188;28;20052;-46
2022/09/28 13:04:37;;;;;;;5.43;3.58;;;11.50;99.90;;;;;;5072641;28;20405;-46
2022/09/28 13:07:10;;;;;;;6.65;3.53;;;11.40;99.90;;;;;;5072603;28;20127;-46
2022/09/28 13:09:56;;;;;;;7.35;4.00;;;11.40;99.90;;;;;;5071132;28;20060;-46
2022/09/28 13:12:35;;;;;;;4.93;3.50;;;11.40;99.90;;;;;;5073026;28;20128;-47
2022/09/28 13:15:08;;;;;;;5.30;3.45;;;11.30;99.90;;;;;;5072112;28;20572;-46
2022/09/28 13:18:01;;;;;;;5.45;3.33;;;11.20;99.90;;;;;;5067619;28;20125;-47
2022/09/28 13:20:51;;;;;;;7.82;3.63;;;11.20;99.90;;;;;;5072557;28;20127;-46
2022/09/28 13:23:45;;;;;;;6.75;3.72;;;11.10;99.90;;;;;;5072822;28;20075;-46
2022/09/28 13:26:13;;;;;;;8.52;3.80;;;11.10;99.90;;;;;;5065698;28;20127;-47
2022/09/28 13:28:42;;;;;;;5.50;3.45;;;11.00;99.90;;;;;;5072762;28;20736;-46
2022/09/28 13:31:11;;;;;;;4.32;2.90;;;10.90;99.90;;;;;;5072141;28;20112;-46
2022/09/28 13:33:42;;;;;;;6.30;2.90;;;10.90;99.90;;;;;;5069271;28;20046;-46
2022/09/28 13:36:27;;;;;;;6.03;3.72;;;10.90;99.90;;;;;;5071385;28;20465;-46
2022/09/28 13:38:58;;;;;;;6.88;3.65;;;10.80;99.90;;;;;;5072945;28;20068;-46
2022/09/28 13:41:30;;;;;;;4.60;3.63;;;10.70;99.90;;;;;;5068336;28;20132;-46
2022/09/28 13:44:12;;;;;;;5.90;3.67;;;10.60;99.90;;;;;;5072248;28;20079;-47
2022/09/28 13:47:06;;;;;;;8.75;3.88;;;10.60;99.90;;;;;;5071938;28;20553;-47
2022/09/28 13:50:16;;;;;;;7.28;4.22;;;10.70;99.90;;;;;;5067919;28;20107;-46
2022/09/28 13:52:57;;;;;;;8.20;4.38;;;10.70;99.90;;;;;;5065496;28;20557;-46
2022/09/28 13:55:31;;;;;;;5.63;3.80;;;10.70;99.90;;;;;;5078727;28;20475;-46
2022/09/28 13:58:14;;;;;;;9.77;3.95;;;10.60;99.90;;;;;;5078525;28;20052;-47
2022/09/28 14:01:41;;;;;;;7.30;3.47;;;10.60;99.90;;;;;;5104187;22;20097;-47
2022/09/28 14:04:20;;;;;;;6.25;3.42;;;10.70;99.90;;;;;;5108761;28;20110;-49